sensor_id;sensor_type;location;lat;lon;timestamp;temperature;humidity
76996;DHT22;65929;49.062;10.338;2023-07-16T00:00:31;18.90;91.10
76996;DHT22;65929;49.062;10.338;2023-07-16T00:01:32;18.90;91.30
76996;DHT22;65929;49.062;10.338;2023-07-16T00:02:38;18.80;91.10
76996;DHT22;65929;49.062;10.338;2023-07-16T00:03:42;18.80;90.30
76996;DHT22;65929;49.062;10.338;2023-07-16T00:04:44;18.80;90.60
76996;DHT22;65929;49.062;10.338;2023-07-16T00:05:49;18.80;91.00
76996;DHT22;65929;49.062;10.338;2023-07-16T00:06:57;18.80;91.20
76996;DHT22;65929;49.062;10.338;2023-07-16T00:08:01;18.80;91.20
76996;DHT22;65929;49.062;10.338;2023-07-16T00:09:13;18.80;91.30
76996;DHT22;65929;49.062;10.338;2023-07-16T00:10:15;18.70;91.50
76996;DHT22;65929;49.062;10.338;2023-07-16T00:11:17;18.70;91.60
76996;DHT22;65929;49.062;10.338;2023-07-16T00:12:18;18.70;91.70
76996;DHT22;65929;49.062;10.338;2023-07-16T00:13:19;18.70;91.40
76996;DHT22;65929;49.062;10.338;2023-07-16T00:14:23;18.70;91.30
76996;DHT22;65929;49.062;10.338;2023-07-16T00:15:24;18.70;91.50
76996;DHT22;65929;49.062;10.338;2023-07-16T00:16:29;18.60;91.60
76996;DHT22;65929;49.062;10.338;2023-07-16T00:17:36;18.60;91.90
76996;DHT22;65929;49.062;10.338;2023-07-16T00:18:41;18.60;92.00
76996;DHT22;65929;49.062;10.338;2023-07-16T00:19:42;18.60;92.00
76996;DHT22;65929;49.062;10.338;2023-07-16T00:20:43;18.60;92.50
76996;DHT22;65929;49.062;10.338;2023-07-16T00:21:44;18.60;92.70
76996;DHT22;65929;49.062;10.338;2023-07-16T00:22:45;18.50;92.00
76996;DHT22;65929;49.062;10.338;2023-07-16T00:23:46;18.50;91.70
76996;DHT22;65929;49.062;10.338;2023-07-16T00:24:47;18.50;90.90
76996;DHT22;65929;49.062;10.338;2023-07-16T00:25:48;18.50;90.60
76996;DHT22;65929;49.062;10.338;2023-07-16T00:26:49;18.40;90.40
76996;DHT22;65929;49.062;10.338;2023-07-16T00:27:49;18.30;90.40
76996;DHT22;65929;49.062;10.338;2023-07-16T00:28:50;18.30;90.80
76996;DHT22;65929;49.062;10.338;2023-07-16T00:29:51;18.30;91.40
76996;DHT22;65929;49.062;10.338;2023-07-16T00:30:52;18.20;91.70
76996;DHT22;65929;49.062;10.338;2023-07-16T00:31:54;18.20;92.00
76996;DHT22;65929;49.062;10.338;2023-07-16T00:32:55;18.10;92.20
76996;DHT22;65929;49.062;10.338;2023-07-16T00:33:56;18.10;92.30
76996;DHT22;65929;49.062;10.338;2023-07-16T00:34:57;18.10;92.40
76996;DHT22;65929;49.062;10.338;2023-07-16T00:35:58;18.00;92.60
76996;DHT22;65929;49.062;10.338;2023-07-16T00:36:59;18.00;92.30
76996;DHT22;65929;49.062;10.338;2023-07-16T00:38:02;18.00;92.20
76996;DHT22;65929;49.062;10.338;2023-07-16T00:39:03;18.00;92.30
76996;DHT22;65929;49.062;10.338;2023-07-16T00:40:05;18.00;92.50
76996;DHT22;65929;49.062;10.338;2023-07-16T00:41:06;18.00;92.80
76996;DHT22;65929;49.062;10.338;2023-07-16T00:42:07;17.90;92.60
76996;DHT22;65929;49.062;10.338;2023-07-16T00:43:08;17.90;92.90
76996;DHT22;65929;49.062;10.338;2023-07-16T00:44:09;17.80;92.90
76996;DHT22;65929;49.062;10.338;2023-07-16T00:45:12;17.80;93.10
76996;DHT22;65929;49.062;10.338;2023-07-16T00:46:16;17.80;93.20
76996;DHT22;65929;49.062;10.338;2023-07-16T00:47:19;17.80;93.00
76996;DHT22;65929;49.062;10.338;2023-07-16T00:48:20;17.80;93.10
76996;DHT22;65929;49.062;10.338;2023-07-16T00:49:23;17.60;93.60
76996;DHT22;65929;49.062;10.338;2023-07-16T00:50:24;17.60;93.30
76996;DHT22;65929;49.062;10.338;2023-07-16T00:51:26;17.60;93.20
76996;DHT22;65929;49.062;10.338;2023-07-16T00:52:28;17.60;93.40
76996;DHT22;65929;49.062;10.338;2023-07-16T00:53:29;17.50;93.90
76996;DHT22;65929;49.062;10.338;2023-07-16T00:54:31;17.50;94.10
76996;DHT22;65929;49.062;10.338;2023-07-16T00:55:32;17.50;94.40
76996;DHT22;65929;49.062;10.338;2023-07-16T00:56:35;17.50;94.50
76996;DHT22;65929;49.062;10.338;2023-07-16T00:57:37;17.50;94.60
76996;DHT22;65929;49.062;10.338;2023-07-16T00:58:39;17.50;94.40
76996;DHT22;65929;49.062;10.338;2023-07-16T00:59:40;17.50;94.50
76996;DHT22;65929;49.062;10.338;2023-07-16T01:00:42;17.50;94.50
76996;DHT22;65929;49.062;10.338;2023-07-16T01:01:43;17.50;94.70
76996;DHT22;65929;49.062;10.338;2023-07-16T01:02:45;17.50;94.70
76996;DHT22;65929;49.062;10.338;2023-07-16T01:03:46;17.50;94.80
76996;DHT22;65929;49.062;10.338;2023-07-16T01:04:47;17.50;94.80
76996;DHT22;65929;49.062;10.338;2023-07-16T01:05:53;17.50;94.90
76996;DHT22;65929;49.062;10.338;2023-07-16T01:06:58;17.40;95.00
76996;DHT22;65929;49.062;10.338;2023-07-16T01:08:04;17.40;94.90
76996;DHT22;65929;49.062;10.338;2023-07-16T01:09:09;17.40;94.70
76996;DHT22;65929;49.062;10.338;2023-07-16T01:10:11;17.40;94.50
76996;DHT22;65929;49.062;10.338;2023-07-16T01:11:12;17.40;94.60
76996;DHT22;65929;49.062;10.338;2023-07-16T01:12:14;17.40;94.80
76996;DHT22;65929;49.062;10.338;2023-07-16T01:13:16;17.40;94.80
76996;DHT22;65929;49.062;10.338;2023-07-16T01:14:17;17.40;95.00
76996;DHT22;65929;49.062;10.338;2023-07-16T01:15:19;17.40;95.10
76996;DHT22;65929;49.062;10.338;2023-07-16T01:16:20;17.40;95.10
76996;DHT22;65929;49.062;10.338;2023-07-16T01:17:21;17.40;95.20
76996;DHT22;65929;49.062;10.338;2023-07-16T01:18:24;17.40;95.30
76996;DHT22;65929;49.062;10.338;2023-07-16T01:19:25;17.30;95.40
76996;DHT22;65929;49.062;10.338;2023-07-16T01:20:26;17.40;95.50
76996;DHT22;65929;49.062;10.338;2023-07-16T01:21:34;17.30;95.50
76996;DHT22;65929;49.062;10.338;2023-07-16T01:23:04;17.30;95.50
76996;DHT22;65929;49.062;10.338;2023-07-16T01:24:29;17.30;95.60
76996;DHT22;65929;49.062;10.338;2023-07-16T01:25:54;17.30;95.70
76996;DHT22;65929;49.062;10.338;2023-07-16T01:27:44;17.30;95.70
76996;DHT22;65929;49.062;10.338;2023-07-16T01:30:20;17.30;96.00
76996;DHT22;65929;49.062;10.338;2023-07-16T01:31:22;17.20;96.10
76996;DHT22;65929;49.062;10.338;2023-07-16T01:32:31;17.20;96.10
76996;DHT22;65929;49.062;10.338;2023-07-16T01:33:33;17.20;96.10
76996;DHT22;65929;49.062;10.338;2023-07-16T01:34:37;17.20;96.10
76996;DHT22;65929;49.062;10.338;2023-07-16T01:35:41;17.20;96.00
76996;DHT22;65929;49.062;10.338;2023-07-16T01:36:43;17.20;95.90
76996;DHT22;65929;49.062;10.338;2023-07-16T01:37:44;17.20;95.90
76996;DHT22;65929;49.062;10.338;2023-07-16T01:38:46;17.20;95.70
76996;DHT22;65929;49.062;10.338;2023-07-16T01:39:47;17.20;95.70
76996;DHT22;65929;49.062;10.338;2023-07-16T01:40:48;17.20;95.70
76996;DHT22;65929;49.062;10.338;2023-07-16T01:41:49;17.20;95.60
76996;DHT22;65929;49.062;10.338;2023-07-16T01:42:50;17.20;95.60
76996;DHT22;65929;49.062;10.338;2023-07-16T01:43:51;17.20;95.70
76996;DHT22;65929;49.062;10.338;2023-07-16T01:44:52;17.20;95.70
76996;DHT22;65929;49.062;10.338;2023-07-16T01:45:54;17.20;95.70
76996;DHT22;65929;49.062;10.338;2023-07-16T01:47:15;17.20;95.80
76996;DHT22;65929;49.062;10.338;2023-07-16T01:48:28;17.20;95.90
76996;DHT22;65929;49.062;10.338;2023-07-16T01:49:30;17.10;95.90
76996;DHT22;65929;49.062;10.338;2023-07-16T01:50:31;17.10;96.00
76996;DHT22;65929;49.062;10.338;2023-07-16T01:51:32;17.10;96.00
76996;DHT22;65929;49.062;10.338;2023-07-16T01:52:33;17.10;96.10
76996;DHT22;65929;49.062;10.338;2023-07-16T01:53:34;17.10;96.10
76996;DHT22;65929;49.062;10.338;2023-07-16T01:54:35;17.10;96.00
76996;DHT22;65929;49.062;10.338;2023-07-16T01:55:36;17.10;95.80
76996;DHT22;65929;49.062;10.338;2023-07-16T01:56:37;17.10;95.70
76996;DHT22;65929;49.062;10.338;2023-07-16T01:57:38;17.10;95.60
76996;DHT22;65929;49.062;10.338;2023-07-16T01:58:38;17.10;95.60
76996;DHT22;65929;49.062;10.338;2023-07-16T01:59:39;17.00;95.70
76996;DHT22;65929;49.062;10.338;2023-07-16T02:00:40;17.00;95.80
76996;DHT22;65929;49.062;10.338;2023-07-16T02:01:43;17.00;95.80
76996;DHT22;65929;49.062;10.338;2023-07-16T02:02:44;17.10;95.90
76996;DHT22;65929;49.062;10.338;2023-07-16T02:03:45;17.10;96.00
76996;DHT22;65929;49.062;10.338;2023-07-16T02:04:46;17.10;96.00
76996;DHT22;65929;49.062;10.338;2023-07-16T02:05:48;17.00;96.00
76996;DHT22;65929;49.062;10.338;2023-07-16T02:06:49;17.10;96.10
76996;DHT22;65929;49.062;10.338;2023-07-16T02:07:49;17.10;96.10
76996;DHT22;65929;49.062;10.338;2023-07-16T02:08:50;17.10;96.10
76996;DHT22;65929;49.062;10.338;2023-07-16T02:09:51;17.10;96.10
76996;DHT22;65929;49.062;10.338;2023-07-16T02:10:52;17.10;96.10
76996;DHT22;65929;49.062;10.338;2023-07-16T02:11:53;17.10;96.20
76996;DHT22;65929;49.062;10.338;2023-07-16T02:12:54;17.00;96.20
76996;DHT22;65929;49.062;10.338;2023-07-16T02:13:55;17.00;96.20
76996;DHT22;65929;49.062;10.338;2023-07-16T02:14:56;17.00;96.20
76996;DHT22;65929;49.062;10.338;2023-07-16T02:15:57;17.10;96.30
76996;DHT22;65929;49.062;10.338;2023-07-16T02:16:59;17.10;96.40
76996;DHT22;65929;49.062;10.338;2023-07-16T02:18:00;17.10;96.40
76996;DHT22;65929;49.062;10.338;2023-07-16T02:19:01;17.10;96.40
76996;DHT22;65929;49.062;10.338;2023-07-16T02:20:03;17.10;96.40
76996;DHT22;65929;49.062;10.338;2023-07-16T02:21:06;17.10;96.50
76996;DHT22;65929;49.062;10.338;2023-07-16T02:22:08;17.20;96.60
76996;DHT22;65929;49.062;10.338;2023-07-16T02:23:08;17.20;96.60
76996;DHT22;65929;49.062;10.338;2023-07-16T02:24:09;17.20;96.70
76996;DHT22;65929;49.062;10.338;2023-07-16T02:25:10;17.20;96.70
76996;DHT22;65929;49.062;10.338;2023-07-16T02:26:11;17.20;96.70
76996;DHT22;65929;49.062;10.338;2023-07-16T02:27:12;17.20;96.70
76996;DHT22;65929;49.062;10.338;2023-07-16T02:28:13;17.20;96.80
76996;DHT22;65929;49.062;10.338;2023-07-16T02:29:14;17.20;96.70
76996;DHT22;65929;49.062;10.338;2023-07-16T02:30:15;17.20;96.70
76996;DHT22;65929;49.062;10.338;2023-07-16T02:31:16;17.20;96.70
76996;DHT22;65929;49.062;10.338;2023-07-16T02:32:19;17.20;96.70
76996;DHT22;65929;49.062;10.338;2023-07-16T02:33:20;17.20;96.70
76996;DHT22;65929;49.062;10.338;2023-07-16T02:34:21;17.20;96.70
76996;DHT22;65929;49.062;10.338;2023-07-16T02:35:22;17.20;96.70
76996;DHT22;65929;49.062;10.338;2023-07-16T02:36:23;17.20;96.70
76996;DHT22;65929;49.062;10.338;2023-07-16T02:37:24;17.20;96.80
76996;DHT22;65929;49.062;10.338;2023-07-16T02:38:25;17.20;96.80
76996;DHT22;65929;49.062;10.338;2023-07-16T02:39:26;17.20;96.80
76996;DHT22;65929;49.062;10.338;2023-07-16T02:40:26;17.20;96.80
76996;DHT22;65929;49.062;10.338;2023-07-16T02:41:27;17.20;96.80
76996;DHT22;65929;49.062;10.338;2023-07-16T02:42:29;17.20;96.70
76996;DHT22;65929;49.062;10.338;2023-07-16T02:43:30;17.20;96.70
76996;DHT22;65929;49.062;10.338;2023-07-16T02:44:30;17.20;96.70
76996;DHT22;65929;49.062;10.338;2023-07-16T02:45:32;17.20;96.70
76996;DHT22;65929;49.062;10.338;2023-07-16T02:46:32;17.20;96.70
76996;DHT22;65929;49.062;10.338;2023-07-16T02:47:35;17.20;96.70
76996;DHT22;65929;49.062;10.338;2023-07-16T02:48:36;17.10;96.70
76996;DHT22;65929;49.062;10.338;2023-07-16T02:49:37;17.10;96.70
76996;DHT22;65929;49.062;10.338;2023-07-16T02:50:38;17.10;96.60
76996;DHT22;65929;49.062;10.338;2023-07-16T02:51:39;17.10;96.60
76996;DHT22;65929;49.062;10.338;2023-07-16T02:52:40;17.00;96.60
76996;DHT22;65929;49.062;10.338;2023-07-16T02:53:41;17.10;96.70
76996;DHT22;65929;49.062;10.338;2023-07-16T02:54:42;17.10;96.80
76996;DHT22;65929;49.062;10.338;2023-07-16T02:55:45;17.10;96.70
76996;DHT22;65929;49.062;10.338;2023-07-16T02:56:47;17.10;96.70
76996;DHT22;65929;49.062;10.338;2023-07-16T02:57:48;17.10;96.60
76996;DHT22;65929;49.062;10.338;2023-07-16T02:58:49;17.10;96.50
76996;DHT22;65929;49.062;10.338;2023-07-16T02:59:50;17.10;96.20
76996;DHT22;65929;49.062;10.338;2023-07-16T03:00:51;17.10;95.40
76996;DHT22;65929;49.062;10.338;2023-07-16T03:01:52;17.00;94.90
76996;DHT22;65929;49.062;10.338;2023-07-16T03:02:55;17.00;94.50
76996;DHT22;65929;49.062;10.338;2023-07-16T03:03:56;17.00;94.20
76996;DHT22;65929;49.062;10.338;2023-07-16T03:04:57;17.00;94.20
76996;DHT22;65929;49.062;10.338;2023-07-16T03:05:58;17.00;94.20
76996;DHT22;65929;49.062;10.338;2023-07-16T03:06:59;17.00;94.10
76996;DHT22;65929;49.062;10.338;2023-07-16T03:08:00;17.00;94.20
76996;DHT22;65929;49.062;10.338;2023-07-16T03:09:01;17.00;93.70
76996;DHT22;65929;49.062;10.338;2023-07-16T03:11:09;16.90;92.20
76996;DHT22;65929;49.062;10.338;2023-07-16T03:12:10;16.90;91.60
76996;DHT22;65929;49.062;10.338;2023-07-16T03:13:11;16.80;90.10
76996;DHT22;65929;49.062;10.338;2023-07-16T03:14:12;16.80;90.20
76996;DHT22;65929;49.062;10.338;2023-07-16T03:15:13;16.70;89.40
76996;DHT22;65929;49.062;10.338;2023-07-16T03:16:14;16.70;90.00
76996;DHT22;65929;49.062;10.338;2023-07-16T03:17:15;16.70;89.40
76996;DHT22;65929;49.062;10.338;2023-07-16T03:18:18;16.60;89.20
76996;DHT22;65929;49.062;10.338;2023-07-16T03:19:19;16.60;89.80
76996;DHT22;65929;49.062;10.338;2023-07-16T03:20:20;16.50;89.80
76996;DHT22;65929;49.062;10.338;2023-07-16T03:21:21;16.50;89.00
76996;DHT22;65929;49.062;10.338;2023-07-16T03:22:22;16.50;88.60
76996;DHT22;65929;49.062;10.338;2023-07-16T03:23:23;16.40;89.20
76996;DHT22;65929;49.062;10.338;2023-07-16T03:24:24;16.40;89.10
76996;DHT22;65929;49.062;10.338;2023-07-16T03:25:25;16.40;89.70
76996;DHT22;65929;49.062;10.338;2023-07-16T03:26:26;16.30;90.00
76996;DHT22;65929;49.062;10.338;2023-07-16T03:27:27;16.20;90.20
76996;DHT22;65929;49.062;10.338;2023-07-16T03:28:28;16.20;90.40
76996;DHT22;65929;49.062;10.338;2023-07-16T03:29:29;16.20;90.80
76996;DHT22;65929;49.062;10.338;2023-07-16T03:30:30;16.10;91.20
76996;DHT22;65929;49.062;10.338;2023-07-16T03:31:31;16.10;91.50
76996;DHT22;65929;49.062;10.338;2023-07-16T03:32:32;16.10;91.50
76996;DHT22;65929;49.062;10.338;2023-07-16T03:33:35;16.00;91.70
76996;DHT22;65929;49.062;10.338;2023-07-16T03:34:35;16.00;91.80
76996;DHT22;65929;49.062;10.338;2023-07-16T03:35:36;16.00;92.10
76996;DHT22;65929;49.062;10.338;2023-07-16T03:36:37;16.00;92.20
76996;DHT22;65929;49.062;10.338;2023-07-16T03:37:38;16.00;92.20
76996;DHT22;65929;49.062;10.338;2023-07-16T03:38:39;16.00;92.30
76996;DHT22;65929;49.062;10.338;2023-07-16T03:39:40;16.00;92.50
76996;DHT22;65929;49.062;10.338;2023-07-16T03:40:46;15.90;92.70
76996;DHT22;65929;49.062;10.338;2023-07-16T03:41:47;15.90;92.90
76996;DHT22;65929;49.062;10.338;2023-07-16T03:42:48;15.80;93.10
76996;DHT22;65929;49.062;10.338;2023-07-16T03:43:49;15.80;93.30
76996;DHT22;65929;49.062;10.338;2023-07-16T03:44:50;15.80;93.40
76996;DHT22;65929;49.062;10.338;2023-07-16T03:45:51;15.80;93.40
76996;DHT22;65929;49.062;10.338;2023-07-16T03:46:52;15.80;93.50
76996;DHT22;65929;49.062;10.338;2023-07-16T03:47:53;15.80;93.70
76996;DHT22;65929;49.062;10.338;2023-07-16T03:48:55;15.80;93.90
76996;DHT22;65929;49.062;10.338;2023-07-16T03:49:56;15.70;93.80
76996;DHT22;65929;49.062;10.338;2023-07-16T03:50:57;15.70;93.80
76996;DHT22;65929;49.062;10.338;2023-07-16T03:51:58;15.70;93.90
76996;DHT22;65929;49.062;10.338;2023-07-16T03:52:59;15.70;94.00
76996;DHT22;65929;49.062;10.338;2023-07-16T03:54:00;15.70;94.00
76996;DHT22;65929;49.062;10.338;2023-07-16T03:55:01;15.70;94.10
76996;DHT22;65929;49.062;10.338;2023-07-16T03:56:03;15.70;94.10
76996;DHT22;65929;49.062;10.338;2023-07-16T03:57:05;15.70;94.20
76996;DHT22;65929;49.062;10.338;2023-07-16T03:58:06;15.70;94.30
76996;DHT22;65929;49.062;10.338;2023-07-16T03:59:07;15.70;94.40
76996;DHT22;65929;49.062;10.338;2023-07-16T04:00:08;15.70;94.40
76996;DHT22;65929;49.062;10.338;2023-07-16T04:01:10;15.70;94.50
76996;DHT22;65929;49.062;10.338;2023-07-16T04:02:11;15.70;94.60
76996;DHT22;65929;49.062;10.338;2023-07-16T04:03:12;15.70;94.70
76996;DHT22;65929;49.062;10.338;2023-07-16T04:04:14;15.70;94.80
76996;DHT22;65929;49.062;10.338;2023-07-16T04:05:15;15.70;94.80
76996;DHT22;65929;49.062;10.338;2023-07-16T04:06:16;15.70;94.80
76996;DHT22;65929;49.062;10.338;2023-07-16T04:07:17;15.70;95.00
76996;DHT22;65929;49.062;10.338;2023-07-16T04:08:18;15.70;95.00
76996;DHT22;65929;49.062;10.338;2023-07-16T04:09:19;15.70;94.90
76996;DHT22;65929;49.062;10.338;2023-07-16T04:10:20;15.80;94.90
76996;DHT22;65929;49.062;10.338;2023-07-16T04:11:21;15.80;94.90
76996;DHT22;65929;49.062;10.338;2023-07-16T04:12:22;15.80;94.70
76996;DHT22;65929;49.062;10.338;2023-07-16T04:13:23;15.80;94.60
76996;DHT22;65929;49.062;10.338;2023-07-16T04:14:24;15.80;94.50
76996;DHT22;65929;49.062;10.338;2023-07-16T04:15:25;15.80;94.40
76996;DHT22;65929;49.062;10.338;2023-07-16T04:16:26;15.80;94.50
76996;DHT22;65929;49.062;10.338;2023-07-16T04:17:27;15.80;94.50
76996;DHT22;65929;49.062;10.338;2023-07-16T04:18:28;15.80;94.50
76996;DHT22;65929;49.062;10.338;2023-07-16T04:19:31;15.80;94.60
76996;DHT22;65929;49.062;10.338;2023-07-16T04:20:32;15.80;94.50
76996;DHT22;65929;49.062;10.338;2023-07-16T04:21:34;15.80;94.40
76996;DHT22;65929;49.062;10.338;2023-07-16T04:22:35;15.90;94.20
76996;DHT22;65929;49.062;10.338;2023-07-16T04:23:36;15.90;94.20
76996;DHT22;65929;49.062;10.338;2023-07-16T04:24:37;15.90;94.20
76996;DHT22;65929;49.062;10.338;2023-07-16T04:25:38;16.00;94.20
76996;DHT22;65929;49.062;10.338;2023-07-16T04:26:39;16.00;94.10
76996;DHT22;65929;49.062;10.338;2023-07-16T04:27:40;16.00;94.00
76996;DHT22;65929;49.062;10.338;2023-07-16T04:28:43;16.00;94.10
76996;DHT22;65929;49.062;10.338;2023-07-16T04:29:44;16.00;94.10
76996;DHT22;65929;49.062;10.338;2023-07-16T04:30:45;16.00;94.10
76996;DHT22;65929;49.062;10.338;2023-07-16T04:31:46;16.10;94.30
76996;DHT22;65929;49.062;10.338;2023-07-16T04:32:47;16.10;94.50
76996;DHT22;65929;49.062;10.338;2023-07-16T04:33:48;16.10;94.50
76996;DHT22;65929;49.062;10.338;2023-07-16T04:34:50;16.10;94.70
76996;DHT22;65929;49.062;10.338;2023-07-16T04:35:51;16.10;94.30
76996;DHT22;65929;49.062;10.338;2023-07-16T04:36:53;16.10;94.00
76996;DHT22;65929;49.062;10.338;2023-07-16T04:37:54;16.10;93.90
76996;DHT22;65929;49.062;10.338;2023-07-16T04:38:55;16.10;93.70
76996;DHT22;65929;49.062;10.338;2023-07-16T04:39:56;16.20;93.50
76996;DHT22;65929;49.062;10.338;2023-07-16T04:40:56;16.20;92.50
76996;DHT22;65929;49.062;10.338;2023-07-16T04:41:57;16.20;90.80
76996;DHT22;65929;49.062;10.338;2023-07-16T04:42:58;16.20;90.70
76996;DHT22;65929;49.062;10.338;2023-07-16T04:43:59;16.20;90.10
76996;DHT22;65929;49.062;10.338;2023-07-16T04:45:00;16.20;90.40
76996;DHT22;65929;49.062;10.338;2023-07-16T04:46:01;16.10;91.10
76996;DHT22;65929;49.062;10.338;2023-07-16T04:47:03;16.10;91.50
76996;DHT22;65929;49.062;10.338;2023-07-16T04:48:04;16.10;91.30
76996;DHT22;65929;49.062;10.338;2023-07-16T04:49:05;16.10;91.20
76996;DHT22;65929;49.062;10.338;2023-07-16T04:50:08;16.10;90.70
76996;DHT22;65929;49.062;10.338;2023-07-16T04:51:09;16.10;89.70
76996;DHT22;65929;49.062;10.338;2023-07-16T04:52:10;16.10;90.40
76996;DHT22;65929;49.062;10.338;2023-07-16T04:53:11;16.10;90.10
76996;DHT22;65929;49.062;10.338;2023-07-16T04:54:12;16.10;90.00
76996;DHT22;65929;49.062;10.338;2023-07-16T04:55:13;16.10;89.20
76996;DHT22;65929;49.062;10.338;2023-07-16T04:56:15;16.10;88.70
76996;DHT22;65929;49.062;10.338;2023-07-16T04:57:16;16.10;89.20
76996;DHT22;65929;49.062;10.338;2023-07-16T04:58:18;16.10;89.90
76996;DHT22;65929;49.062;10.338;2023-07-16T04:59:19;16.00;90.20
76996;DHT22;65929;49.062;10.338;2023-07-16T05:00:20;16.00;90.40
76996;DHT22;65929;49.062;10.338;2023-07-16T05:01:21;16.00;91.10
76996;DHT22;65929;49.062;10.338;2023-07-16T05:02:22;16.00;90.20
76996;DHT22;65929;49.062;10.338;2023-07-16T05:03:23;16.00;89.40
76996;DHT22;65929;49.062;10.338;2023-07-16T05:04:24;16.00;90.00
76996;DHT22;65929;49.062;10.338;2023-07-16T05:05:26;16.00;89.80
76996;DHT22;65929;49.062;10.338;2023-07-16T05:06:27;16.00;89.10
76996;DHT22;65929;49.062;10.338;2023-07-16T05:07:28;16.00;89.10
76996;DHT22;65929;49.062;10.338;2023-07-16T05:08:29;16.00;88.80
76996;DHT22;65929;49.062;10.338;2023-07-16T05:09:30;16.00;89.10
76996;DHT22;65929;49.062;10.338;2023-07-16T05:10:32;16.00;88.90
76996;DHT22;65929;49.062;10.338;2023-07-16T05:11:33;16.00;88.70
76996;DHT22;65929;49.062;10.338;2023-07-16T05:12:34;16.00;88.40
76996;DHT22;65929;49.062;10.338;2023-07-16T05:13:35;16.00;88.80
76996;DHT22;65929;49.062;10.338;2023-07-16T05:14:43;16.00;87.50
76996;DHT22;65929;49.062;10.338;2023-07-16T05:15:45;16.00;87.50
76996;DHT22;65929;49.062;10.338;2023-07-16T05:16:46;16.00;87.70
76996;DHT22;65929;49.062;10.338;2023-07-16T05:17:47;16.00;88.20
76996;DHT22;65929;49.062;10.338;2023-07-16T05:18:48;16.00;87.20
76996;DHT22;65929;49.062;10.338;2023-07-16T05:19:49;16.00;87.30
76996;DHT22;65929;49.062;10.338;2023-07-16T05:20:51;16.10;86.80
76996;DHT22;65929;49.062;10.338;2023-07-16T05:21:52;16.10;86.00
76996;DHT22;65929;49.062;10.338;2023-07-16T05:22:53;16.10;86.30
76996;DHT22;65929;49.062;10.338;2023-07-16T05:23:54;16.10;86.30
76996;DHT22;65929;49.062;10.338;2023-07-16T05:24:58;16.10;85.80
76996;DHT22;65929;49.062;10.338;2023-07-16T05:25:59;16.10;85.00
76996;DHT22;65929;49.062;10.338;2023-07-16T05:27:00;16.20;85.60
76996;DHT22;65929;49.062;10.338;2023-07-16T05:28:02;16.20;85.80
76996;DHT22;65929;49.062;10.338;2023-07-16T05:29:03;16.20;85.30
76996;DHT22;65929;49.062;10.338;2023-07-16T05:30:05;16.20;85.80
76996;DHT22;65929;49.062;10.338;2023-07-16T05:31:06;16.20;85.80
76996;DHT22;65929;49.062;10.338;2023-07-16T05:32:08;16.20;85.40
76996;DHT22;65929;49.062;10.338;2023-07-16T05:33:09;16.20;85.50
76996;DHT22;65929;49.062;10.338;2023-07-16T05:34:10;16.20;85.90
76996;DHT22;65929;49.062;10.338;2023-07-16T05:35:11;16.20;86.00
76996;DHT22;65929;49.062;10.338;2023-07-16T05:36:14;16.20;86.80
76996;DHT22;65929;49.062;10.338;2023-07-16T05:37:15;16.20;87.10
76996;DHT22;65929;49.062;10.338;2023-07-16T05:38:16;16.20;86.10
76996;DHT22;65929;49.062;10.338;2023-07-16T05:39:16;16.20;86.20
76996;DHT22;65929;49.062;10.338;2023-07-16T05:40:17;16.20;85.70
76996;DHT22;65929;49.062;10.338;2023-07-16T05:41:18;16.20;85.80
76996;DHT22;65929;49.062;10.338;2023-07-16T05:42:19;16.30;85.20
76996;DHT22;65929;49.062;10.338;2023-07-16T05:43:20;16.30;85.10
76996;DHT22;65929;49.062;10.338;2023-07-16T05:44:21;16.30;84.70
76996;DHT22;65929;49.062;10.338;2023-07-16T05:45:22;16.40;84.80
76996;DHT22;65929;49.062;10.338;2023-07-16T05:46:24;16.30;85.20
76996;DHT22;65929;49.062;10.338;2023-07-16T05:47:25;16.40;85.90
76996;DHT22;65929;49.062;10.338;2023-07-16T05:48:26;16.40;85.20
76996;DHT22;65929;49.062;10.338;2023-07-16T05:49:27;16.40;85.00
76996;DHT22;65929;49.062;10.338;2023-07-16T05:50:28;16.40;84.40
76996;DHT22;65929;49.062;10.338;2023-07-16T05:51:30;16.40;85.10
76996;DHT22;65929;49.062;10.338;2023-07-16T05:52:31;16.40;85.90
76996;DHT22;65929;49.062;10.338;2023-07-16T05:53:32;16.40;85.40
76996;DHT22;65929;49.062;10.338;2023-07-16T05:54:33;16.40;85.00
76996;DHT22;65929;49.062;10.338;2023-07-16T05:55:34;16.40;85.30
76996;DHT22;65929;49.062;10.338;2023-07-16T05:56:35;16.40;84.70
76996;DHT22;65929;49.062;10.338;2023-07-16T05:57:36;16.40;84.30
76996;DHT22;65929;49.062;10.338;2023-07-16T05:58:37;16.40;84.80
76996;DHT22;65929;49.062;10.338;2023-07-16T05:59:38;16.40;85.30
76996;DHT22;65929;49.062;10.338;2023-07-16T06:00:39;16.40;85.10
76996;DHT22;65929;49.062;10.338;2023-07-16T06:01:40;16.40;85.00
76996;DHT22;65929;49.062;10.338;2023-07-16T06:02:42;16.40;85.50
76996;DHT22;65929;49.062;10.338;2023-07-16T06:03:42;16.40;85.20
76996;DHT22;65929;49.062;10.338;2023-07-16T06:04:43;16.40;85.30
76996;DHT22;65929;49.062;10.338;2023-07-16T06:05:44;16.40;85.40
76996;DHT22;65929;49.062;10.338;2023-07-16T06:06:47;16.50;85.30
76996;DHT22;65929;49.062;10.338;2023-07-16T06:07:48;16.50;84.60
76996;DHT22;65929;49.062;10.338;2023-07-16T06:08:49;16.60;85.20
76996;DHT22;65929;49.062;10.338;2023-07-16T06:09:50;16.60;84.90
76996;DHT22;65929;49.062;10.338;2023-07-16T06:10:51;16.60;84.50
76996;DHT22;65929;49.062;10.338;2023-07-16T06:11:52;16.70;83.30
76996;DHT22;65929;49.062;10.338;2023-07-16T06:12:53;16.70;84.00
76996;DHT22;65929;49.062;10.338;2023-07-16T06:13:54;16.70;84.30
76996;DHT22;65929;49.062;10.338;2023-07-16T06:14:55;16.80;83.20
76996;DHT22;65929;49.062;10.338;2023-07-16T06:15:56;16.80;81.90
76996;DHT22;65929;49.062;10.338;2023-07-16T06:16:57;16.90;82.30
76996;DHT22;65929;49.062;10.338;2023-07-16T06:17:58;16.90;84.00
76996;DHT22;65929;49.062;10.338;2023-07-16T06:18:59;16.90;82.60
76996;DHT22;65929;49.062;10.338;2023-07-16T06:20:01;17.00;83.50
76996;DHT22;65929;49.062;10.338;2023-07-16T06:21:02;17.00;82.90
76996;DHT22;65929;49.062;10.338;2023-07-16T06:22:05;17.00;82.30
76996;DHT22;65929;49.062;10.338;2023-07-16T06:23:06;17.00;81.60
76996;DHT22;65929;49.062;10.338;2023-07-16T06:24:06;17.00;81.90
76996;DHT22;65929;49.062;10.338;2023-07-16T06:25:08;17.00;82.40
76996;DHT22;65929;49.062;10.338;2023-07-16T06:26:11;17.10;83.00
76996;DHT22;65929;49.062;10.338;2023-07-16T06:27:12;17.10;83.80